OIYY  Shahid Sadooghi  Airport

Yazd, Iran

Add Bookmark
ICAO OIYY
IATA AZD
Type Airport
Status Operational
Latitude
31° 54' 17" N
31.904900
Longitude
54° 16' 35" E
54.276501
Local (GMT +4.5 ) UTC
Aug 27, 2016 04:05 pm Aug 27, 2016 11:35
Sunrise-Sunset Local UTC
Begin Civil Twilight 05:59 am 01:29
Sunrise 06:24 am 01:54
Sunset 07:24 pm 14:54
End Civil Twilight 07:49 pm 15:19
VFR
VFR
MVFR
MVFR
IFR
IFR
LIFR
LIFR
Unknown
Unavailable

Current Weather

METAR Observed VFR
OIYY 271100Z 33016KT CAVOK 36/M07 Q1018 Sat, Aug 27, 2016 @ 11:00 UTC
(35 Minutes ago)
Visual Flight Rules
Wind Visibility Conditions
330° at 16 knots (30 kph) 10 km or more
  • No significant weather
Temperatures Readings Precipitation
Current Temp
36°C
97°F
Dewpoint
-7°C
19°F
Humidity 6%
Altimeter 30.06" Hg
Sea Level Pressure 1,018 mb
Field Elevation
1,236 m
4,055 ft
None Recorded
-
-

CheckWX.com is intended as a tool to help pilots better visualize weather data. It is not intended as a substitute for an official weather briefing obtained from a Flight Service Station. CheckWX.com does not meet the FAA requirements for an official pre-flight weather briefing. Therefore, it's important that pilots still call and obtain an official FSS pre-flight weather briefing.

© 2007-2016 CheckWX.com
11:35:49 UTC